sensor_id;sensor_type;location;lat;lon;timestamp;P1;durP1;ratioP1;P2;durP2;ratioP2
21192;SDS011;10754;51.106;7.164;2023-02-23T00:00:41;18.23;;;16.63;;
21192;SDS011;10754;51.106;7.164;2023-02-23T00:03:08;18.50;;;16.80;;
21192;SDS011;10754;51.106;7.164;2023-02-23T00:05:35;19.70;;;17.70;;
21192;SDS011;10754;51.106;7.164;2023-02-23T00:08:01;18.83;;;17.20;;
21192;SDS011;10754;51.106;7.164;2023-02-23T00:10:27;18.80;;;17.07;;
21192;SDS011;10754;51.106;7.164;2023-02-23T00:12:56;19.10;;;17.40;;
21192;SDS011;10754;51.106;7.164;2023-02-23T00:15:25;18.52;;;16.83;;
21192;SDS011;10754;51.106;7.164;2023-02-23T00:17:52;19.70;;;18.00;;
21192;SDS011;10754;51.106;7.164;2023-02-23T00:20:19;19.58;;;17.67;;
21192;SDS011;10754;51.106;7.164;2023-02-23T00:22:49;19.37;;;17.60;;
21192;SDS011;10754;51.106;7.164;2023-02-23T00:25:17;18.73;;;17.13;;
21192;SDS011;10754;51.106;7.164;2023-02-23T00:27:43;18.20;;;16.50;;
21192;SDS011;10754;51.106;7.164;2023-02-23T00:30:13;17.48;;;15.98;;
21192;SDS011;10754;51.106;7.164;2023-02-23T00:32:40;18.80;;;17.10;;
21192;SDS011;10754;51.106;7.164;2023-02-23T00:35:06;18.23;;;16.63;;
21192;SDS011;10754;51.106;7.164;2023-02-23T00:37:41;17.83;;;16.27;;
21192;SDS011;10754;51.106;7.164;2023-02-23T00:40:08;17.70;;;16.00;;
21192;SDS011;10754;51.106;7.164;2023-02-23T00:42:37;17.40;;;15.80;;
21192;SDS011;10754;51.106;7.164;2023-02-23T00:45:04;18.92;;;17.10;;
21192;SDS011;10754;51.106;7.164;2023-02-23T00:47:32;17.63;;;15.93;;
21192;SDS011;10754;51.106;7.164;2023-02-23T00:49:58;17.48;;;15.90;;
21192;SDS011;10754;51.106;7.164;2023-02-23T00:52:23;18.43;;;16.83;;
21192;SDS011;10754;51.106;7.164;2023-02-23T00:54:48;17.95;;;16.27;;
21192;SDS011;10754;51.106;7.164;2023-02-23T00:57:15;17.40;;;15.90;;
21192;SDS011;10754;51.106;7.164;2023-02-23T00:59:40;17.48;;;16.00;;
21192;SDS011;10754;51.106;7.164;2023-02-23T01:02:06;19.05;;;17.27;;
21192;SDS011;10754;51.106;7.164;2023-02-23T01:04:31;17.63;;;16.17;;
21192;SDS011;10754;51.106;7.164;2023-02-23T01:06:57;17.75;;;16.15;;
21192;SDS011;10754;51.106;7.164;2023-02-23T01:09:22;17.70;;;16.00;;
21192;SDS011;10754;51.106;7.164;2023-02-23T01:11:52;16.17;;;14.67;;
21192;SDS011;10754;51.106;7.164;2023-02-23T01:14:20;17.33;;;15.82;;
21192;SDS011;10754;51.106;7.164;2023-02-23T01:16:46;16.83;;;15.20;;
21192;SDS011;10754;51.106;7.164;2023-02-23T01:19:11;16.73;;;15.15;;
21192;SDS011;10754;51.106;7.164;2023-02-23T01:21:39;17.17;;;15.47;;
21192;SDS011;10754;51.106;7.164;2023-02-23T01:24:06;17.93;;;16.33;;
21192;SDS011;10754;51.106;7.164;2023-02-23T01:26:34;17.60;;;16.00;;
21192;SDS011;10754;51.106;7.164;2023-02-23T01:29:22;16.92;;;15.38;;
21192;SDS011;10754;51.106;7.164;2023-02-23T01:31:48;17.90;;;16.17;;
21192;SDS011;10754;51.106;7.164;2023-02-23T01:34:15;17.38;;;15.80;;
21192;SDS011;10754;51.106;7.164;2023-02-23T01:36:42;18.27;;;16.37;;
21192;SDS011;10754;51.106;7.164;2023-02-23T01:39:10;18.57;;;16.67;;
21192;SDS011;10754;51.106;7.164;2023-02-23T01:41:37;16.90;;;15.40;;
21192;SDS011;10754;51.106;7.164;2023-02-23T01:46:38;17.43;;;15.77;;
21192;SDS011;10754;51.106;7.164;2023-02-23T01:49:07;17.20;;;15.60;;
21192;SDS011;10754;51.106;7.164;2023-02-23T01:51:40;17.13;;;15.50;;
21192;SDS011;10754;51.106;7.164;2023-02-23T01:54:13;18.03;;;16.37;;
21192;SDS011;10754;51.106;7.164;2023-02-23T01:56:46;17.30;;;15.60;;
21192;SDS011;10754;51.106;7.164;2023-02-23T01:59:22;18.88;;;17.00;;
21192;SDS011;10754;51.106;7.164;2023-02-23T02:01:52;17.10;;;15.55;;
21192;SDS011;10754;51.106;7.164;2023-02-23T02:04:19;17.80;;;16.13;;
21192;SDS011;10754;51.106;7.164;2023-02-23T02:06:45;18.80;;;17.10;;
21192;SDS011;10754;51.106;7.164;2023-02-23T02:09:17;18.23;;;16.60;;
21192;SDS011;10754;51.106;7.164;2023-02-23T02:11:44;19.48;;;17.67;;
21192;SDS011;10754;51.106;7.164;2023-02-23T02:19:34;18.23;;;16.63;;
21192;SDS011;10754;51.106;7.164;2023-02-23T02:27:56;18.17;;;16.58;;
21192;SDS011;10754;51.106;7.164;2023-02-23T02:39:25;17.17;;;15.57;;
21192;SDS011;10754;51.106;7.164;2023-02-23T02:44:28;18.17;;;16.57;;
21192;SDS011;10754;51.106;7.164;2023-02-23T02:47:07;17.88;;;16.40;;
21192;SDS011;10754;51.106;7.164;2023-02-23T02:49:47;19.00;;;17.20;;
21192;SDS011;10754;51.106;7.164;2023-02-23T02:52:37;16.50;;;15.00;;
21192;SDS011;10754;51.106;7.164;2023-02-23T02:55:12;18.15;;;16.55;;
21192;SDS011;10754;51.106;7.164;2023-02-23T02:57:42;18.80;;;17.20;;
21192;SDS011;10754;51.106;7.164;2023-02-23T03:00:13;17.93;;;16.33;;
21192;SDS011;10754;51.106;7.164;2023-02-23T03:03:02;18.83;;;17.13;;
21192;SDS011;10754;51.106;7.164;2023-02-23T03:05:47;18.63;;;17.02;;
21192;SDS011;10754;51.106;7.164;2023-02-23T03:11:35;20.38;;;18.52;;
21192;SDS011;10754;51.106;7.164;2023-02-23T03:20:25;20.07;;;18.17;;
21192;SDS011;10754;51.106;7.164;2023-02-23T03:23:21;19.23;;;17.53;;
21192;SDS011;10754;51.106;7.164;2023-02-23T03:26:20;18.53;;;16.93;;
21192;SDS011;10754;51.106;7.164;2023-02-23T03:29:20;19.87;;;17.97;;
21192;SDS011;10754;51.106;7.164;2023-02-23T03:32:28;20.87;;;18.97;;
21192;SDS011;10754;51.106;7.164;2023-02-23T03:36:00;20.33;;;18.42;;
21192;SDS011;10754;51.106;7.164;2023-02-23T03:38:26;20.67;;;18.77;;
21192;SDS011;10754;51.106;7.164;2023-02-23T03:41:17;19.47;;;17.57;;
21192;SDS011;10754;51.106;7.164;2023-02-23T03:44:06;19.23;;;17.40;;
21192;SDS011;10754;51.106;7.164;2023-02-23T03:46:55;21.23;;;19.27;;
21192;SDS011;10754;51.106;7.164;2023-02-23T03:49:41;19.10;;;17.40;;
21192;SDS011;10754;51.106;7.164;2023-02-23T03:52:29;20.30;;;18.50;;
21192;SDS011;10754;51.106;7.164;2023-02-23T03:55:18;21.30;;;19.50;;
21192;SDS011;10754;51.106;7.164;2023-02-23T03:58:09;21.08;;;19.27;;
21192;SDS011;10754;51.106;7.164;2023-02-23T04:00:57;20.95;;;19.15;;
21192;SDS011;10754;51.106;7.164;2023-02-23T04:03:43;20.37;;;18.60;;
21192;SDS011;10754;51.106;7.164;2023-02-23T04:06:31;19.70;;;18.00;;
21192;SDS011;10754;51.106;7.164;2023-02-23T04:09:20;20.20;;;18.40;;
21192;SDS011;10754;51.106;7.164;2023-02-23T04:17:40;19.67;;;17.98;;
21192;SDS011;10754;51.106;7.164;2023-02-23T04:20:07;20.37;;;18.57;;
21192;SDS011;10754;51.106;7.164;2023-02-23T04:22:36;19.75;;;18.08;;
21192;SDS011;10754;51.106;7.164;2023-02-23T04:25:01;20.65;;;18.85;;
21192;SDS011;10754;51.106;7.164;2023-02-23T04:27:29;19.40;;;17.80;;
21192;SDS011;10754;51.106;7.164;2023-02-23T04:29:55;19.30;;;17.50;;
21192;SDS011;10754;51.106;7.164;2023-02-23T04:32:21;20.77;;;18.97;;
21192;SDS011;10754;51.106;7.164;2023-02-23T04:34:46;19.90;;;18.20;;
21192;SDS011;10754;51.106;7.164;2023-02-23T04:37:12;18.60;;;17.00;;
21192;SDS011;10754;51.106;7.164;2023-02-23T04:39:38;19.08;;;17.48;;
21192;SDS011;10754;51.106;7.164;2023-02-23T04:42:07;18.63;;;17.02;;
21192;SDS011;10754;51.106;7.164;2023-02-23T04:44:33;18.48;;;16.92;;
21192;SDS011;10754;51.106;7.164;2023-02-23T04:46:58;18.23;;;16.63;;
21192;SDS011;10754;51.106;7.164;2023-02-23T04:49:24;18.13;;;16.52;;
21192;SDS011;10754;51.106;7.164;2023-02-23T04:51:49;17.77;;;16.27;;
21192;SDS011;10754;51.106;7.164;2023-02-23T04:54:15;16.47;;;15.07;;
21192;SDS011;10754;51.106;7.164;2023-02-23T04:56:40;16.57;;;15.27;;
21192;SDS011;10754;51.106;7.164;2023-02-23T04:59:06;16.50;;;15.10;;
21192;SDS011;10754;51.106;7.164;2023-02-23T05:01:31;15.77;;;14.43;;
21192;SDS011;10754;51.106;7.164;2023-02-23T05:03:57;15.50;;;14.20;;
21192;SDS011;10754;51.106;7.164;2023-02-23T05:06:24;15.40;;;14.10;;
21192;SDS011;10754;51.106;7.164;2023-02-23T05:08:50;15.33;;;14.03;;
21192;SDS011;10754;51.106;7.164;2023-02-23T05:11:16;15.55;;;14.25;;
21192;SDS011;10754;51.106;7.164;2023-02-23T05:13:41;14.33;;;13.13;;
21192;SDS011;10754;51.106;7.164;2023-02-23T05:16:07;14.20;;;13.00;;
21192;SDS011;10754;51.106;7.164;2023-02-23T05:18:32;14.53;;;13.23;;
21192;SDS011;10754;51.106;7.164;2023-02-23T05:21:05;14.77;;;13.57;;
21192;SDS011;10754;51.106;7.164;2023-02-23T05:23:32;15.20;;;14.00;;
21192;SDS011;10754;51.106;7.164;2023-02-23T05:26:00;13.80;;;12.70;;
21192;SDS011;10754;51.106;7.164;2023-02-23T05:28:28;15.20;;;14.00;;
21192;SDS011;10754;51.106;7.164;2023-02-23T05:30:54;15.57;;;14.27;;
21192;SDS011;10754;51.106;7.164;2023-02-23T05:33:19;14.87;;;13.60;;
21192;SDS011;10754;51.106;7.164;2023-02-23T05:35:45;15.53;;;14.23;;
21192;SDS011;10754;51.106;7.164;2023-02-23T05:38:11;15.07;;;13.80;;
21192;SDS011;10754;51.106;7.164;2023-02-23T05:40:37;16.10;;;14.80;;
21192;SDS011;10754;51.106;7.164;2023-02-23T05:43:03;17.47;;;15.93;;
21192;SDS011;10754;51.106;7.164;2023-02-23T05:45:29;18.95;;;17.30;;
21192;SDS011;10754;51.106;7.164;2023-02-23T05:47:55;19.57;;;17.77;;
21192;SDS011;10754;51.106;7.164;2023-02-23T05:50:20;21.00;;;19.10;;
21192;SDS011;10754;51.106;7.164;2023-02-23T05:52:46;20.73;;;18.67;;
21192;SDS011;10754;51.106;7.164;2023-02-23T05:55:11;21.43;;;19.43;;
21192;SDS011;10754;51.106;7.164;2023-02-23T05:57:37;20.97;;;19.00;;
21192;SDS011;10754;51.106;7.164;2023-02-23T06:00:04;21.27;;;19.37;;
21192;SDS011;10754;51.106;7.164;2023-02-23T06:02:30;22.23;;;20.13;;
21192;SDS011;10754;51.106;7.164;2023-02-23T06:04:56;22.47;;;20.37;;
21192;SDS011;10754;51.106;7.164;2023-02-23T06:07:22;20.65;;;18.75;;
21192;SDS011;10754;51.106;7.164;2023-02-23T06:09:48;21.87;;;19.87;;
21192;SDS011;10754;51.106;7.164;2023-02-23T06:12:13;22.25;;;20.25;;
21192;SDS011;10754;51.106;7.164;2023-02-23T06:14:39;22.33;;;20.33;;
21192;SDS011;10754;51.106;7.164;2023-02-23T06:17:05;22.70;;;20.50;;
21192;SDS011;10754;51.106;7.164;2023-02-23T06:19:31;21.97;;;19.77;;
21192;SDS011;10754;51.106;7.164;2023-02-23T06:21:57;23.77;;;21.67;;
21192;SDS011;10754;51.106;7.164;2023-02-23T06:24:22;22.17;;;20.07;;
21192;SDS011;10754;51.106;7.164;2023-02-23T06:26:48;22.17;;;20.17;;
21192;SDS011;10754;51.106;7.164;2023-02-23T06:29:14;23.63;;;21.23;;
21192;SDS011;10754;51.106;7.164;2023-02-23T06:31:40;22.73;;;20.53;;
21192;SDS011;10754;51.106;7.164;2023-02-23T06:34:07;21.40;;;19.40;;
21192;SDS011;10754;51.106;7.164;2023-02-23T06:36:33;22.35;;;20.17;;
21192;SDS011;10754;51.106;7.164;2023-02-23T06:38:59;22.30;;;20.17;;
21192;SDS011;10754;51.106;7.164;2023-02-23T06:41:25;21.57;;;19.47;;
21192;SDS011;10754;51.106;7.164;2023-02-23T06:43:51;23.27;;;20.97;;
21192;SDS011;10754;51.106;7.164;2023-02-23T06:46:17;22.33;;;20.13;;
21192;SDS011;10754;51.106;7.164;2023-02-23T06:48:42;22.50;;;20.35;;
21192;SDS011;10754;51.106;7.164;2023-02-23T06:51:08;23.63;;;21.33;;
21192;SDS011;10754;51.106;7.164;2023-02-23T06:53:34;24.95;;;22.45;;
21192;SDS011;10754;51.106;7.164;2023-02-23T06:56:00;23.23;;;21.00;;
21192;SDS011;10754;51.106;7.164;2023-02-23T06:58:26;24.43;;;22.03;;
21192;SDS011;10754;51.106;7.164;2023-02-23T07:00:53;24.53;;;22.20;;
21192;SDS011;10754;51.106;7.164;2023-02-23T07:03:20;22.67;;;20.47;;
21192;SDS011;10754;51.106;7.164;2023-02-23T07:05:46;24.83;;;22.33;;
21192;SDS011;10754;51.106;7.164;2023-02-23T07:08:12;23.53;;;21.10;;
21192;SDS011;10754;51.106;7.164;2023-02-23T07:10:37;22.87;;;20.57;;
21192;SDS011;10754;51.106;7.164;2023-02-23T07:13:03;23.80;;;21.33;;
21192;SDS011;10754;51.106;7.164;2023-02-23T07:15:28;24.02;;;21.73;;
21192;SDS011;10754;51.106;7.164;2023-02-23T07:17:54;24.10;;;21.73;;
21192;SDS011;10754;51.106;7.164;2023-02-23T07:20:20;25.70;;;23.10;;
21192;SDS011;10754;51.106;7.164;2023-02-23T07:22:46;28.63;;;25.73;;
21192;SDS011;10754;51.106;7.164;2023-02-23T07:25:11;34.63;;;31.03;;
21192;SDS011;10754;51.106;7.164;2023-02-23T07:27:37;35.83;;;32.10;;
21192;SDS011;10754;51.106;7.164;2023-02-23T07:30:03;38.87;;;34.67;;
21192;SDS011;10754;51.106;7.164;2023-02-23T07:32:29;37.63;;;33.53;;
21192;SDS011;10754;51.106;7.164;2023-02-23T07:34:55;39.00;;;33.70;;
21192;SDS011;10754;51.106;7.164;2023-02-23T07:37:20;37.60;;;32.97;;
21192;SDS011;10754;51.106;7.164;2023-02-23T07:39:46;37.83;;;33.83;;
21192;SDS011;10754;51.106;7.164;2023-02-23T07:42:12;34.63;;;31.03;;
21192;SDS011;10754;51.106;7.164;2023-02-23T07:44:37;34.00;;;30.50;;
21192;SDS011;10754;51.106;7.164;2023-02-23T07:47:04;35.47;;;31.70;;
21192;SDS011;10754;51.106;7.164;2023-02-23T07:49:30;33.42;;;29.95;;
21192;SDS011;10754;51.106;7.164;2023-02-23T07:51:56;35.37;;;30.20;;
21192;SDS011;10754;51.106;7.164;2023-02-23T07:54:23;33.63;;;29.90;;
21192;SDS011;10754;51.106;7.164;2023-02-23T07:56:49;31.40;;;28.17;;
21192;SDS011;10754;51.106;7.164;2023-02-23T07:59:15;32.63;;;29.23;;
21192;SDS011;10754;51.106;7.164;2023-02-23T08:01:41;29.97;;;26.97;;
21192;SDS011;10754;51.106;7.164;2023-02-23T08:04:07;29.30;;;26.30;;
21192;SDS011;10754;51.106;7.164;2023-02-23T08:06:33;26.13;;;23.60;;
21192;SDS011;10754;51.106;7.164;2023-02-23T08:08:58;24.10;;;21.80;;
21192;SDS011;10754;51.106;7.164;2023-02-23T08:11:25;24.70;;;22.30;;
21192;SDS011;10754;51.106;7.164;2023-02-23T08:13:54;23.87;;;21.57;;
21192;SDS011;10754;51.106;7.164;2023-02-23T08:16:24;21.77;;;19.77;;
21192;SDS011;10754;51.106;7.164;2023-02-23T08:18:53;22.75;;;20.52;;
21192;SDS011;10754;51.106;7.164;2023-02-23T08:21:20;21.17;;;19.17;;
21192;SDS011;10754;51.106;7.164;2023-02-23T08:23:45;21.60;;;19.50;;
21192;SDS011;10754;51.106;7.164;2023-02-23T08:26:11;22.77;;;20.57;;
21192;SDS011;10754;51.106;7.164;2023-02-23T08:28:36;23.13;;;20.92;;
21192;SDS011;10754;51.106;7.164;2023-02-23T08:31:02;21.57;;;19.57;;
21192;SDS011;10754;51.106;7.164;2023-02-23T08:33:27;21.80;;;19.80;;
21192;SDS011;10754;51.106;7.164;2023-02-23T08:35:57;21.43;;;19.43;;
21192;SDS011;10754;51.106;7.164;2023-02-23T08:38:23;19.83;;;17.87;;
21192;SDS011;10754;51.106;7.164;2023-02-23T08:40:48;19.03;;;17.23;;
21192;SDS011;10754;51.106;7.164;2023-02-23T08:43:14;20.93;;;18.77;;
21192;SDS011;10754;51.106;7.164;2023-02-23T08:45:39;20.27;;;18.27;;
21192;SDS011;10754;51.106;7.164;2023-02-23T08:48:06;24.10;;;21.57;;
21192;SDS011;10754;51.106;7.164;2023-02-23T08:50:32;22.67;;;20.47;;
21192;SDS011;10754;51.106;7.164;2023-02-23T08:52:58;21.93;;;19.73;;
21192;SDS011;10754;51.106;7.164;2023-02-23T08:55:24;22.60;;;20.40;;
21192;SDS011;10754;51.106;7.164;2023-02-23T08:57:49;22.30;;;20.20;;
21192;SDS011;10754;51.106;7.164;2023-02-23T09:00:15;21.23;;;19.23;;
21192;SDS011;10754;51.106;7.164;2023-02-23T09:02:41;22.83;;;20.52;;
21192;SDS011;10754;51.106;7.164;2023-02-23T09:05:07;21.40;;;19.33;;
21192;SDS011;10754;51.106;7.164;2023-02-23T09:07:33;22.03;;;19.80;;
21192;SDS011;10754;51.106;7.164;2023-02-23T09:09:59;22.08;;;19.83;;
21192;SDS011;10754;51.106;7.164;2023-02-23T09:12:24;22.37;;;20.07;;
21192;SDS011;10754;51.106;7.164;2023-02-23T09:14:50;23.93;;;21.53;;
21192;SDS011;10754;51.106;7.164;2023-02-23T09:17:17;22.87;;;20.50;;
21192;SDS011;10754;51.106;7.164;2023-02-23T09:19:44;23.20;;;20.93;;
21192;SDS011;10754;51.106;7.164;2023-02-23T09:22:09;22.23;;;20.03;;
21192;SDS011;10754;51.106;7.164;2023-02-23T09:24:35;22.13;;;19.93;;
21192;SDS011;10754;51.106;7.164;2023-02-23T09:27:02;20.10;;;18.10;;
21192;SDS011;10754;51.106;7.164;2023-02-23T09:29:28;22.20;;;19.97;;
21192;SDS011;10754;51.106;7.164;2023-02-23T09:31:54;20.70;;;18.70;;
21192;SDS011;10754;51.106;7.164;2023-02-23T09:34:22;21.30;;;19.13;;
21192;SDS011;10754;51.106;7.164;2023-02-23T09:36:47;20.23;;;18.13;;
21192;SDS011;10754;51.106;7.164;2023-02-23T09:39:13;20.10;;;18.10;;
21192;SDS011;10754;51.106;7.164;2023-02-23T09:41:48;18.80;;;17.00;;
21192;SDS011;10754;51.106;7.164;2023-02-23T09:46:49;20.67;;;18.67;;
21192;SDS011;10754;51.106;7.164;2023-02-23T09:49:28;22.57;;;20.40;;
21192;SDS011;10754;51.106;7.164;2023-02-23T09:51:58;22.17;;;20.00;;
21192;SDS011;10754;51.106;7.164;2023-02-23T09:54:26;21.33;;;19.23;;
21192;SDS011;10754;51.106;7.164;2023-02-23T09:56:57;21.50;;;19.20;;
21192;SDS011;10754;51.106;7.164;2023-02-23T09:59:27;21.27;;;19.13;;
21192;SDS011;10754;51.106;7.164;2023-02-23T10:02:01;20.90;;;18.80;;
21192;SDS011;10754;51.106;7.164;2023-02-23T10:07:42;21.73;;;19.57;;
21192;SDS011;10754;51.106;7.164;2023-02-23T10:10:34;22.43;;;20.23;;
21192;SDS011;10754;51.106;7.164;2023-02-23T10:19:24;20.07;;;18.17;;
21192;SDS011;10754;51.106;7.164;2023-02-23T10:21:52;20.47;;;18.57;;
21192;SDS011;10754;51.106;7.164;2023-02-23T10:24:25;21.10;;;19.10;;
21192;SDS011;10754;51.106;7.164;2023-02-23T10:26:59;20.57;;;18.57;;
21192;SDS011;10754;51.106;7.164;2023-02-23T10:29:35;20.30;;;18.47;;
21192;SDS011;10754;51.106;7.164;2023-02-23T10:32:25;20.23;;;18.23;;
21192;SDS011;10754;51.106;7.164;2023-02-23T10:35:12;21.03;;;19.00;;
21192;SDS011;10754;51.106;7.164;2023-02-23T10:37:39;21.00;;;19.00;;
21192;SDS011;10754;51.106;7.164;2023-02-23T10:40:05;20.60;;;18.67;;
21192;SDS011;10754;51.106;7.164;2023-02-23T10:42:32;20.17;;;18.27;;
21192;SDS011;10754;51.106;7.164;2023-02-23T10:44:58;18.90;;;17.05;;
21192;SDS011;10754;51.106;7.164;2023-02-23T10:47:31;19.25;;;17.35;;
21192;SDS011;10754;51.106;7.164;2023-02-23T10:49:58;18.75;;;16.85;;
21192;SDS011;10754;51.106;7.164;2023-02-23T10:53:29;18.63;;;16.83;;
21192;SDS011;10754;51.106;7.164;2023-02-23T10:55:42;20.10;;;18.10;;
21192;SDS011;10754;51.106;7.164;2023-02-23T10:58:18;20.43;;;17.97;;
21192;SDS011;10754;51.106;7.164;2023-02-23T11:00:57;20.40;;;18.20;;
21192;SDS011;10754;51.106;7.164;2023-02-23T11:03:44;20.33;;;18.33;;
21192;SDS011;10754;51.106;7.164;2023-02-23T11:06:27;20.75;;;18.60;;
21192;SDS011;10754;51.106;7.164;2023-02-23T11:08:53;20.27;;;18.17;;
21192;SDS011;10754;51.106;7.164;2023-02-23T11:11:22;20.33;;;18.38;;
21192;SDS011;10754;51.106;7.164;2023-02-23T11:13:49;21.55;;;19.35;;
21192;SDS011;10754;51.106;7.164;2023-02-23T11:18:42;18.80;;;16.98;;
21192;SDS011;10754;51.106;7.164;2023-02-23T11:21:27;17.50;;;15.73;;
21192;SDS011;10754;51.106;7.164;2023-02-23T11:26:51;17.88;;;16.13;;
21192;SDS011;10754;51.106;7.164;2023-02-23T11:37:43;19.55;;;17.60;;
21192;SDS011;10754;51.106;7.164;2023-02-23T11:40:19;20.40;;;18.20;;
21192;SDS011;10754;51.106;7.164;2023-02-23T11:42:52;19.98;;;17.90;;
21192;SDS011;10754;51.106;7.164;2023-02-23T11:45:38;21.83;;;19.27;;
21192;SDS011;10754;51.106;7.164;2023-02-23T11:48:18;21.42;;;19.13;;
21192;SDS011;10754;51.106;7.164;2023-02-23T11:50:47;21.50;;;19.20;;
21192;SDS011;10754;51.106;7.164;2023-02-23T11:53:14;23.57;;;21.07;;
21192;SDS011;10754;51.106;7.164;2023-02-23T11:55:49;24.42;;;21.90;;
21192;SDS011;10754;51.106;7.164;2023-02-23T12:01:07;24.15;;;20.83;;
21192;SDS011;10754;51.106;7.164;2023-02-23T12:03:44;24.43;;;21.83;;
21192;SDS011;10754;51.106;7.164;2023-02-23T12:06:28;23.50;;;21.07;;
21192;SDS011;10754;51.106;7.164;2023-02-23T12:09:02;22.53;;;20.13;;
21192;SDS011;10754;51.106;7.164;2023-02-23T12:12:03;22.52;;;19.90;;
21192;SDS011;10754;51.106;7.164;2023-02-23T12:14:37;23.63;;;21.13;;
21192;SDS011;10754;51.106;7.164;2023-02-23T12:17:18;23.00;;;20.03;;
21192;SDS011;10754;51.106;7.164;2023-02-23T12:19:57;23.17;;;20.10;;
21192;SDS011;10754;51.106;7.164;2023-02-23T12:22:28;22.80;;;20.10;;
21192;SDS011;10754;51.106;7.164;2023-02-23T12:25:03;24.52;;;21.08;;
21192;SDS011;10754;51.106;7.164;2023-02-23T12:27:40;23.00;;;20.60;;
21192;SDS011;10754;51.106;7.164;2023-02-23T12:33:01;24.03;;;20.77;;
21192;SDS011;10754;51.106;7.164;2023-02-23T12:35:42;26.57;;;22.70;;
21192;SDS011;10754;51.106;7.164;2023-02-23T12:38:47;27.70;;;22.17;;
21192;SDS011;10754;51.106;7.164;2023-02-23T12:46:49;22.92;;;20.15;;
21192;SDS011;10754;51.106;7.164;2023-02-23T12:49:30;22.33;;;19.03;;
21192;SDS011;10754;51.106;7.164;2023-02-23T12:54:40;19.20;;;17.20;;
21192;SDS011;10754;51.106;7.164;2023-02-23T12:57:26;20.67;;;17.40;;
21192;SDS011;10754;51.106;7.164;2023-02-23T13:00:04;18.93;;;15.80;;
21192;SDS011;10754;51.106;7.164;2023-02-23T13:03:11;20.02;;;15.88;;
21192;SDS011;10754;51.106;7.164;2023-02-23T13:12:25;17.87;;;15.97;;
21192;SDS011;10754;51.106;7.164;2023-02-23T13:17:27;18.83;;;15.63;;
21192;SDS011;10754;51.106;7.164;2023-02-23T13:20:02;21.42;;;17.25;;
21192;SDS011;10754;51.106;7.164;2023-02-23T13:22:43;22.07;;;17.60;;
21192;SDS011;10754;51.106;7.164;2023-02-23T13:28:07;22.30;;;17.40;;
21192;SDS011;10754;51.106;7.164;2023-02-23T13:30:41;21.70;;;17.53;;
21192;SDS011;10754;51.106;7.164;2023-02-23T13:33:21;20.02;;;16.92;;
21192;SDS011;10754;51.106;7.164;2023-02-23T13:35:50;19.77;;;16.50;;
21192;SDS011;10754;51.106;7.164;2023-02-23T13:38:19;21.10;;;16.93;;
21192;SDS011;10754;51.106;7.164;2023-02-23T13:40:58;19.10;;;16.83;;
21192;SDS011;10754;51.106;7.164;2023-02-23T13:43:58;19.83;;;16.73;;
21192;SDS011;10754;51.106;7.164;2023-02-23T13:46:47;21.17;;;17.50;;
21192;SDS011;10754;51.106;7.164;2023-02-23T13:49:36;23.33;;;17.83;;
21192;SDS011;10754;51.106;7.164;2023-02-23T13:52:19;21.53;;;18.23;;
21192;SDS011;10754;51.106;7.164;2023-02-23T13:54:53;21.50;;;18.53;;
21192;SDS011;10754;51.106;7.164;2023-02-23T13:57:21;23.30;;;18.07;;
21192;SDS011;10754;51.106;7.164;2023-02-23T13:59:48;22.97;;;19.80;;
21192;SDS011;10754;51.106;7.164;2023-02-23T14:04:52;25.00;;;22.10;;
21192;SDS011;10754;51.106;7.164;2023-02-23T14:07:26;24.83;;;22.07;;
21192;SDS011;10754;51.106;7.164;2023-02-23T14:09:55;24.08;;;21.17;;
21192;SDS011;10754;51.106;7.164;2023-02-23T14:13:03;26.33;;;22.00;;
21192;SDS011;10754;51.106;7.164;2023-02-23T14:18:03;25.80;;;23.03;;
21192;SDS011;10754;51.106;7.164;2023-02-23T14:20:53;24.10;;;20.97;;
21192;SDS011;10754;51.106;7.164;2023-02-23T14:30:57;22.53;;;20.13;;
21192;SDS011;10754;51.106;7.164;2023-02-23T14:33:33;21.87;;;19.57;;
21192;SDS011;10754;51.106;7.164;2023-02-23T14:36:26;21.60;;;17.90;;
21192;SDS011;10754;51.106;7.164;2023-02-23T14:41:49;20.63;;;18.50;;
21192;SDS011;10754;51.106;7.164;2023-02-23T14:44:24;19.03;;;17.03;;
21192;SDS011;10754;51.106;7.164;2023-02-23T14:47:13;19.90;;;17.80;;
21192;SDS011;10754;51.106;7.164;2023-02-23T14:49:46;23.83;;;16.33;;
21192;SDS011;10754;51.106;7.164;2023-02-23T14:54:51;16.83;;;15.03;;
21192;SDS011;10754;51.106;7.164;2023-02-23T14:57:28;17.48;;;15.65;;
21192;SDS011;10754;51.106;7.164;2023-02-23T14:59:58;18.70;;;16.70;;
21192;SDS011;10754;51.106;7.164;2023-02-23T15:02:27;16.93;;;15.13;;
21192;SDS011;10754;51.106;7.164;2023-02-23T15:04:54;16.97;;;15.17;;
21192;SDS011;10754;51.106;7.164;2023-02-23T15:07:22;16.87;;;14.77;;
21192;SDS011;10754;51.106;7.164;2023-02-23T15:09:56;16.10;;;14.40;;
21192;SDS011;10754;51.106;7.164;2023-02-23T15:12:25;17.13;;;15.43;;
21192;SDS011;10754;51.106;7.164;2023-02-23T15:15:00;16.13;;;14.53;;
21192;SDS011;10754;51.106;7.164;2023-02-23T15:17:27;14.83;;;13.23;;
21192;SDS011;10754;51.106;7.164;2023-02-23T15:19:57;14.67;;;13.20;;
21192;SDS011;10754;51.106;7.164;2023-02-23T15:22:35;15.33;;;13.40;;
21192;SDS011;10754;51.106;7.164;2023-02-23T15:25:21;14.97;;;13.37;;
21192;SDS011;10754;51.106;7.164;2023-02-23T15:27:50;14.87;;;13.37;;
21192;SDS011;10754;51.106;7.164;2023-02-23T15:30:18;14.90;;;13.37;;
21192;SDS011;10754;51.106;7.164;2023-02-23T15:35:28;14.60;;;13.10;;
21192;SDS011;10754;51.106;7.164;2023-02-23T15:37:55;14.47;;;12.90;;
21192;SDS011;10754;51.106;7.164;2023-02-23T15:40:24;14.77;;;13.27;;
21192;SDS011;10754;51.106;7.164;2023-02-23T15:42:54;13.90;;;11.97;;
21192;SDS011;10754;51.106;7.164;2023-02-23T15:45:34;14.93;;;13.40;;
21192;SDS011;10754;51.106;7.164;2023-02-23T15:48:12;14.77;;;12.67;;
21192;SDS011;10754;51.106;7.164;2023-02-23T15:50:43;13.23;;;11.83;;
21192;SDS011;10754;51.106;7.164;2023-02-23T15:53:31;14.23;;;12.77;;
21192;SDS011;10754;51.106;7.164;2023-02-23T15:56:10;14.13;;;12.63;;
21192;SDS011;10754;51.106;7.164;2023-02-23T15:58:39;15.50;;;13.60;;
21192;SDS011;10754;51.106;7.164;2023-02-23T16:01:16;15.33;;;13.37;;
21192;SDS011;10754;51.106;7.164;2023-02-23T16:04:01;14.07;;;12.40;;
21192;SDS011;10754;51.106;7.164;2023-02-23T16:06:35;13.87;;;12.37;;
21192;SDS011;10754;51.106;7.164;2023-02-23T16:09:11;16.43;;;13.13;;
21192;SDS011;10754;51.106;7.164;2023-02-23T16:14:17;19.13;;;15.53;;
21192;SDS011;10754;51.106;7.164;2023-02-23T16:16:44;19.20;;;16.37;;
21192;SDS011;10754;51.106;7.164;2023-02-23T16:19:13;19.63;;;16.53;;
21192;SDS011;10754;51.106;7.164;2023-02-23T16:21:41;20.97;;;15.80;;
21192;SDS011;10754;51.106;7.164;2023-02-23T16:24:13;20.20;;;16.10;;
21192;SDS011;10754;51.106;7.164;2023-02-23T16:26:46;19.77;;;16.20;;
21192;SDS011;10754;51.106;7.164;2023-02-23T16:29:19;19.10;;;16.40;;
21192;SDS011;10754;51.106;7.164;2023-02-23T16:32:16;19.27;;;16.07;;
21192;SDS011;10754;51.106;7.164;2023-02-23T16:37:19;19.90;;;16.27;;
21192;SDS011;10754;51.106;7.164;2023-02-23T16:39:47;20.33;;;16.60;;
21192;SDS011;10754;51.106;7.164;2023-02-23T16:42:18;20.53;;;15.40;;
21192;SDS011;10754;51.106;7.164;2023-02-23T16:44:49;20.10;;;16.70;;